Time;durP1;ratioP1;P1;durP2;ratioP2;P2;SDS_P1;SDS_P2;PMS_P1;PMS_P2;Temp;Humidity;BMP_temperature;BMP_pressure;BME280_temperature;BME280_humidity;BME280_pressure;Samples;Min_cycle;Max_cycle;Signal;HPM_P1;HPM_P2
2021/05/18 00:01:10;;;;;;;1.63;0.80;;;;;;;7.94;100.00;93505.50;5074264;28;20535;-76
2021/05/18 00:03:36;;;;;;;2.03;1.00;;;;;;;7.97;100.00;93506.91;5074485;28;20205;-76
2021/05/18 00:06:04;;;;;;;0.73;0.70;;;;;;;8.00;100.00;93510.94;5074348;28;20226;-77
2021/05/18 00:08:32;;;;;;;1.00;0.77;;;;;;;8.00;100.00;93510.94;5074290;28;20256;-76
2021/05/18 00:13:47;;;;;;;0.87;0.70;;;;;;;8.04;100.00;93507.75;5074227;28;20202;-75
2021/05/18 00:16:14;;;;;;;1.20;0.60;;;;;;;8.00;100.00;93508.34;5074098;28;20203;-77
2021/05/18 00:18:41;;;;;;;2.70;0.97;;;;;;;8.01;100.00;93508.16;5073812;28;20550;-77
2021/05/18 00:21:08;;;;;;;1.10;0.67;;;;;;;7.98;100.00;93511.13;5074141;28;20202;-75
2021/05/18 00:23:35;;;;;;;0.70;0.70;;;;;;;8.00;100.00;93511.75;5073752;28;20235;-78
2021/05/18 00:26:01;;;;;;;0.70;0.70;;;;;;;8.02;100.00;93508.94;5073777;28;20615;-76
2021/05/18 00:28:27;;;;;;;4.07;0.73;;;;;;;7.98;100.00;93500.72;5073723;28;20195;-76
2021/05/18 00:30:53;;;;;;;0.83;0.80;;;;;;;8.04;100.00;93505.16;5073811;28;20198;-79
2021/05/18 00:33:22;;;;;;;1.03;0.70;;;;;;;7.99;100.00;93499.72;5073681;28;20565;-77
2021/05/18 00:35:49;;;;;;;0.70;0.60;;;;;;;7.96;100.00;93506.13;5073617;28;20653;-77
2021/05/18 00:38:17;;;;;;;1.73;0.77;;;;;;;7.94;100.00;93502.09;5073748;28;20205;-76
2021/05/18 00:40:43;;;;;;;4.93;0.70;;;;;;;7.99;100.00;93498.94;5073437;28;20199;-77
2021/05/18 00:43:11;;;;;;;1.33;0.63;;;;;;;7.95;100.00;93498.50;5073447;28;20205;-77
2021/05/18 00:45:39;;;;;;;1.50;0.63;;;;;;;7.99;100.00;93499.72;5072934;28;20210;-77
2021/05/18 00:48:08;;;;;;;1.30;0.70;;;;;;;7.89;100.00;93488.88;5073389;28;20199;-76
2021/05/18 00:50:35;;;;;;;0.60;0.60;;;;;;;7.80;100.00;93495.22;5073437;28;20723;-76
2021/05/18 00:53:03;;;;;;;1.10;0.70;;;;;;;7.83;100.00;93495.66;5073361;28;20198;-77
2021/05/18 00:55:36;;;;;;;1.08;0.50;;;;;;;7.87;100.00;93496.84;5072389;28;20426;-77
2021/05/18 01:00:47;;;;;;;0.87;0.53;;;;;;;7.84;100.00;93504.22;5093575;28;20674;-77
2021/05/18 01:03:13;;;;;;;2.10;0.70;;;;;;;7.86;100.00;93510.03;5093417;28;20552;-77
2021/05/18 01:08:24;;;;;;;1.30;0.63;;;;;;;7.90;100.00;93512.06;5093427;28;20201;-77
2021/05/18 01:10:50;;;;;;;2.63;0.70;;;;;;;7.85;100.00;93516.25;5093212;28;20193;-77
2021/05/18 01:13:16;;;;;;;3.33;0.70;;;;;;;7.85;100.00;93516.25;5093392;28;20198;-76
2021/05/18 01:15:42;;;;;;;1.37;0.77;;;;;;;7.84;100.00;93514.63;5093228;28;20721;-77
2021/05/18 01:18:09;;;;;;;0.83;0.67;;;;;;;7.83;100.00;93511.25;5093287;28;20198;-76
2021/05/18 01:20:38;;;;;;;0.83;0.50;;;;;;;7.85;100.00;93513.66;5093245;28;20202;-77
2021/05/18 01:23:04;;;;;;;0.87;0.50;;;;;;;7.83;100.00;93511.25;5093088;28;20225;-77
2021/05/18 01:25:30;;;;;;;4.97;0.80;;;;;;;7.87;100.00;93511.66;5093234;28;20194;-77
2021/05/18 01:27:56;;;;;;;1.37;0.60;;;;;;;7.87;100.00;93517.66;5093266;28;20202;-76
2021/05/18 01:30:22;;;;;;;1.40;0.70;;;;;;;7.83;100.00;93510.41;5093079;28;20198;-76
2021/05/18 01:32:48;;;;;;;2.00;0.73;;;;;;;7.85;100.00;93513.66;5093155;28;20568;-77
2021/05/18 01:35:15;;;;;;;2.00;0.60;;;;;;;7.81;100.00;93507.22;5092896;28;20198;-77
2021/05/18 01:37:43;;;;;;;1.37;0.67;;;;;;;7.83;100.00;93505.22;5092934;28;20206;-77
2021/05/18 01:42:58;;;;;;;0.73;0.70;;;;;;;7.71;100.00;93505.75;5059154;28;20190;-77
2021/05/18 01:45:29;;;;;;;1.50;0.73;;;;;;;7.67;100.00;93508.91;5092877;28;20194;-77
2021/05/18 01:47:57;;;;;;;2.40;0.80;;;;;;;7.69;100.00;93505.13;5093118;28;20203;-76
2021/05/18 01:50:26;;;;;;;0.87;0.70;;;;;;;7.70;100.00;93508.56;5092889;28;20668;-76
2021/05/18 01:52:53;;;;;;;0.77;0.57;;;;;;;7.77;100.00;93514.59;5092866;28;20205;-77
2021/05/18 01:55:24;;;;;;;0.67;0.57;;;;;;;7.74;100.00;93518.38;5093005;28;20213;-77
2021/05/18 01:57:50;;;;;;;0.50;0.50;;;;;;;7.75;100.00;93519.97;5096930;28;20561;-77
2021/05/18 02:00:19;;;;;;;1.67;0.90;;;;;;;7.77;100.00;93528.38;5096878;28;20198;-76
2021/05/18 02:02:46;;;;;;;3.40;0.80;;;;;;;7.82;100.00;93527.03;5096871;28;20198;-76
2021/05/18 02:05:15;;;;;;;1.37;0.60;;;;;;;7.81;100.00;93528.00;5096803;28;20205;-76
2021/05/18 02:07:44;;;;;;;0.50;0.50;;;;;;;7.78;100.00;93524.00;5096602;28;20230;-77
2021/05/18 02:10:13;;;;;;;0.70;0.50;;;;;;;7.83;100.00;93526.84;5096885;28;20201;-77
2021/05/18 02:12:40;;;;;;;0.60;0.60;;;;;;;7.83;100.00;93521.63;5096648;28;20202;-77
2021/05/18 02:15:18;;;;;;;1.10;0.63;;;;;;;7.84;100.00;93530.22;5096879;28;20197;-77
2021/05/18 02:17:47;;;;;;;1.43;0.70;;;;;;;7.87;100.00;93532.44;5096758;28;20198;-77
2021/05/18 02:20:23;;;;;;;1.38;0.70;;;;;;;7.90;100.00;93537.28;5096267;28;20531;-77
2021/05/18 02:25:34;;;;;;;2.93;0.70;;;;;;;7.90;100.00;93529.47;5096307;28;20251;-77
2021/05/18 02:28:01;;;;;;;1.07;0.70;;;;;;;7.88;100.00;93534.06;5096514;28;20209;-77
2021/05/18 02:30:27;;;;;;;4.03;0.80;;;;;;;7.86;100.00;93542.06;5096362;28;20595;-77
2021/05/18 02:32:54;;;;;;;2.13;0.60;;;;;;;7.91;100.00;93544.06;5096244;28;20243;-76
2021/05/18 02:35:21;;;;;;;0.73;0.73;;;;;;;7.89;100.00;93546.06;5096256;28;20558;-77
2021/05/18 02:37:48;;;;;;;1.43;0.70;;;;;;;7.90;100.00;93548.47;5096036;28;20202;-77
2021/05/18 02:40:19;;;;;;;2.13;1.00;;;;;;;7.89;100.00;93546.06;5096316;28;20564;-76
2021/05/18 02:42:48;;;;;;;2.77;0.93;;;;;;;7.93;100.00;93555.88;5096168;28;20627;-77
2021/05/18 02:45:23;;;;;;;0.70;0.70;;;;;;;7.95;100.00;93540.91;5096182;28;20194;-76
2021/05/18 02:50:33;;;;;;;4.80;0.80;;;;;;;7.88;100.00;93544.47;5096111;28;20216;-76
2021/05/18 02:52:59;;;;;;;0.77;0.77;;;;;;;7.87;100.00;93548.03;5096027;28;20672;-76
2021/05/18 02:55:32;;;;;;;0.60;0.60;;;;;;;7.87;100.00;93558.44;5095984;28;20202;-76
2021/05/18 02:57:58;;;;;;;0.63;0.60;;;;;;;7.86;100.00;93547.25;5095913;28;20202;-76
2021/05/18 03:00:25;;;;;;;4.00;0.73;;;;;;;7.86;100.00;93549.03;5085065;28;20195;-77
2021/05/18 03:02:51;;;;;;;2.03;1.10;;;;;;;7.80;100.00;93548.00;5075462;28;20233;-77
2021/05/18 03:05:18;;;;;;;3.40;0.73;;;;;;;7.82;100.00;93543.41;5074932;28;20438;-77
2021/05/18 03:07:44;;;;;;;0.50;0.50;;;;;;;7.86;100.00;93542.06;5074618;28;20272;-76
2021/05/18 03:10:12;;;;;;;0.97;0.50;;;;;;;7.83;100.00;93541.59;5075373;28;20203;-76
2021/05/18 03:12:38;;;;;;;0.57;0.57;;;;;;;7.81;100.00;93543.59;5075441;28;20198;-77
2021/05/18 03:15:07;;;;;;;1.23;0.53;;;;;;;7.80;100.00;93544.59;5075165;28;20198;-77
2021/05/18 03:17:33;;;;;;;1.70;0.80;;;;;;;7.79;100.00;93543.78;5075355;28;20561;-76
2021/05/18 03:19:59;;;;;;;1.97;0.70;;;;;;;7.80;100.00;93542.00;5075371;28;20238;-76
2021/05/18 03:22:25;;;;;;;2.20;0.60;;;;;;;7.83;100.00;93541.59;5075097;28;20265;-76
2021/05/18 03:24:52;;;;;;;0.50;0.40;;;;;;;7.77;100.00;93538.75;5075086;28;20199;-76
2021/05/18 03:27:17;;;;;;;0.70;0.70;;;;;;;7.77;100.00;93546.56;5075101;28;20223;-76
2021/05/18 03:29:45;;;;;;;0.50;0.50;;;;;;;7.78;100.00;93548.19;5074899;28;20198;-76
2021/05/18 03:34:56;;;;;;;1.63;0.80;;;;;;;7.78;100.00;93550.00;5074979;28;20660;-76
2021/05/18 03:37:25;;;;;;;1.77;0.70;;;;;;;7.80;100.00;93547.19;5074996;28;20202;-76
2021/05/18 03:39:56;;;;;;;0.90;0.53;;;;;;;7.77;100.00;93554.34;5074754;28;20626;-76
2021/05/18 03:42:25;;;;;;;1.10;1.00;;;;;;;7.79;100.00;93556.78;5074776;28;20614;-76
2021/05/18 03:45:05;;;;;;;0.80;0.77;;;;;;;7.78;100.00;93555.19;5074579;28;20842;-76
2021/05/18 03:53:20;;;;;;;0.80;0.70;;;;;;;7.74;100.00;93557.34;5074499;28;20202;-76
2021/05/18 03:58:51;;;;;;;0.87;0.63;;;;;;;7.59;100.00;93562.63;5074670;28;20244;-77
2021/05/18 04:04:10;;;;;;;1.67;0.70;;;;;;;7.35;100.00;93566.41;5074390;28;20197;-76
2021/05/18 04:12:11;;;;;;;0.70;0.60;;;;;;;7.21;100.00;93575.03;5074225;28;20193;-77
2021/05/18 04:17:21;;;;;;;0.83;0.73;;;;;;;7.14;100.00;93579.38;5074202;28;20202;-77
2021/05/18 04:19:54;;;;;;;0.63;0.63;;;;;;;7.13;100.00;93588.16;5074017;28;20203;-77
2021/05/18 04:22:33;;;;;;;1.73;0.80;;;;;;;7.15;100.00;93575.81;5073971;28;20343;-77
2021/05/18 04:25:28;;;;;;;0.73;0.73;;;;;;;7.19;100.00;93577.03;5074038;28;20263;-76
2021/05/18 04:38:48;;;;;;;0.60;0.60;;;;;;;7.23;100.00;93594.66;5073727;28;20561;-76
2021/05/18 04:52:28;;;;;;;0.60;0.60;;;;;;;7.14;100.00;93613.91;5072766;28;20202;-77
2021/05/18 05:00:40;;;;;;;1.57;0.80;;;;;;;7.09;100.00;93628.44;5073477;28;20252;-77
2021/05/18 05:03:23;;;;;;;0.70;0.70;;;;;;;7.01;100.00;93630.16;5073257;28;20205;-77
2021/05/18 05:08:41;;;;;;;1.83;1.20;;;;;;;6.98;100.00;93635.72;5093415;28;20201;-76
2021/05/18 05:14:18;;;;;;;0.77;0.63;;;;;;;6.87;100.00;93641.38;5093409;28;20251;-75
2021/05/18 05:16:44;;;;;;;0.50;0.50;;;;;;;6.83;100.00;93645.31;5092517;28;20440;-77
2021/05/18 05:19:10;;;;;;;0.60;0.60;;;;;;;6.87;100.00;93643.97;5093282;28;20198;-77
2021/05/18 05:21:36;;;;;;;0.60;0.60;;;;;;;6.88;100.00;93640.41;5092950;28;20202;-77
2021/05/18 05:24:04;;;;;;;0.40;0.40;;;;;;;6.94;100.00;93637.06;5093312;28;20202;-76
2021/05/18 05:26:30;;;;;;;0.70;0.53;;;;;;;7.07;100.00;93646.00;5092960;28;20221;-76
2021/05/18 05:28:56;;;;;;;1.50;0.50;;;;;;;7.33;100.00;93641.09;5093295;28;20198;-76
2021/05/18 05:31:22;;;;;;;0.70;0.70;;;;;;;7.55;100.00;93633.31;5092810;28;20258;-77
2021/05/18 05:33:49;;;;;;;0.70;0.70;;;;;;;7.66;100.00;93640.63;5093161;28;20729;-76
2021/05/18 05:36:15;;;;;;;0.60;0.60;;;;;;;7.78;100.00;93633.94;5092674;28;20206;-77
2021/05/18 05:38:41;;;;;;;0.77;0.60;;;;;;;7.83;100.00;93635.97;5092958;28;20208;-77
2021/05/18 05:41:08;;;;;;;0.50;0.50;;;;;;;7.88;100.00;93632.84;5092904;28;20201;-76
2021/05/18 05:43:34;;;;;;;1.70;0.57;;;;;;;7.75;100.00;93633.50;5093163;28;20244;-77
2021/05/18 05:45:59;;;;;;;0.30;0.30;;;;;;;7.54;100.00;93636.91;5093031;28;20202;-76
2021/05/18 05:48:26;;;;;;;0.50;0.50;;;;;;;7.28;100.00;93638.25;5092976;28;20198;-77
2021/05/18 05:50:52;;;;;;;0.60;0.60;;;;;;;7.22;100.00;93642.38;5092982;28;20231;-76
2021/05/18 05:53:18;;;;;;;0.30;0.30;;;;;;;7.17;100.00;93647.31;5093018;28;20194;-75
2021/05/18 05:55:44;;;;;;;0.53;0.50;;;;;;;7.19;100.00;93644.53;5092817;28;20280;-76
2021/05/18 05:58:11;;;;;;;2.93;0.50;;;;;;;7.40;100.00;93646.38;5092928;28;20255;-76
2021/05/18 06:00:37;;;;;;;0.50;0.50;;;;;;;7.44;100.00;93647.59;5093027;28;20248;-76
2021/05/18 06:03:03;;;;;;;0.40;0.40;;;;;;;7.55;100.00;93651.50;5093015;28;20198;-76
2021/05/18 06:05:29;;;;;;;0.73;0.50;;;;;;;7.59;100.00;93655.34;5092860;28;20213;-75
2021/05/18 06:07:56;;;;;;;0.40;0.37;;;;;;;7.59;100.00;93644.94;5092639;28;20226;-75
2021/05/18 06:10:26;;;;;;;0.50;0.50;;;;;;;7.82;100.00;93643.97;5092931;28;20247;-78
2021/05/18 06:13:02;;;;;;;0.50;0.50;;;;;;;7.83;100.00;93645.56;5093155;28;20198;-76
2021/05/18 06:35:12;;;;;;;1.50;0.70;;;;;;;7.21;100.00;93678.91;5072890;28;20335;-76
2021/05/18 06:43:08;;;;;;;1.00;0.90;;;;;;;6.85;100.00;93705.63;5062626;28;20244;-76
2021/05/18 06:46:03;;;;;;;0.67;0.60;;;;;;;6.80;100.00;93710.53;5096133;28;20237;-75
2021/05/18 06:48:30;;;;;;;2.33;0.50;;;;;;;6.62;100.00;93711.69;5096455;28;20237;-76
2021/05/18 06:50:56;;;;;;;1.77;0.80;;;;;;;6.52;100.00;93729.28;5096095;28;20194;-77
2021/05/18 06:53:22;;;;;;;1.33;0.83;;;;;;;6.37;100.00;93737.03;5096045;28;20202;-76
2021/05/18 06:55:50;;;;;;;5.83;0.80;;;;;;;6.32;100.00;93743.75;5095924;28;20672;-76
2021/05/18 06:58:35;;;;;;;0.77;0.77;;;;;;;6.14;100.00;93754.41;5095877;28;20738;-78
2021/05/18 07:01:00;;;;;;;1.83;1.00;;;;;;;6.01;100.00;93742.84;5094298;28;20214;-78
2021/05/18 07:03:32;;;;;;;1.03;0.80;;;;;;;5.79;100.00;93734.03;5076691;28;20191;-79
2021/05/18 07:06:05;;;;;;;1.57;0.70;;;;;;;5.72;100.00;93730.53;5075517;28;20245;-78
2021/05/18 07:11:12;;;;;;;1.40;0.60;;;;;;;5.81;100.00;93739.88;5074561;28;20610;-77
2021/05/18 07:13:38;;;;;;;2.20;0.97;;;;;;;5.86;100.00;93741.94;5075315;28;20199;-77
2021/05/18 07:16:04;;;;;;;4.07;1.60;;;;;;;5.95;100.00;93725.38;5075614;28;20206;-77
2021/05/18 07:18:30;;;;;;;3.03;0.90;;;;;;;6.14;100.00;93729.28;5075313;28;20214;-76
2021/05/18 07:20:56;;;;;;;0.90;0.73;;;;;;;6.32;100.00;93730.78;5075206;28;20194;-76
2021/05/18 07:23:25;;;;;;;0.90;0.90;;;;;;;6.44;100.00;93730.16;5075083;28;20226;-77
2021/05/18 07:25:51;;;;;;;0.87;0.80;;;;;;;6.74;100.00;93732.00;5075302;28;20210;-79
2021/05/18 07:28:19;;;;;;;1.10;0.90;;;;;;;6.85;100.00;93739.34;5075079;28;20222;-78
2021/05/18 07:30:45;;;;;;;3.17;1.30;;;;;;;6.95;100.00;93734.69;5075069;28;20205;-78
2021/05/18 07:33:11;;;;;;;2.97;1.30;;;;;;;7.34;100.00;93738.78;5075052;28;20199;-76
2021/05/18 07:35:38;;;;;;;1.00;0.80;;;;;;;7.46;100.00;93731.34;5074782;28;20265;-77
2021/05/18 07:38:04;;;;;;;2.47;1.00;;;;;;;7.67;100.00;93725.38;5075060;28;20207;-77
2021/05/18 07:40:32;;;;;;;3.07;1.43;;;;;;;7.65;100.00;93729.94;5074945;28;20203;-78
2021/05/18 07:42:58;;;;;;;2.50;1.00;;;;;;;7.63;100.00;93718.94;5074845;28;20195;-75
2021/05/18 07:45:27;;;;;;;2.43;1.53;;;;;;;7.91;100.00;93720.81;5074733;28;20286;-77
2021/05/18 07:47:59;;;;;;;4.23;1.80;;;;;;;7.64;100.00;93717.94;5074576;28;20315;-77
2021/05/18 07:50:34;;;;;;;3.23;1.10;;;;;;;7.53;100.00;93718.44;5074669;28;20546;-77
2021/05/18 08:02:19;;;;;;;4.43;1.70;;;;;;;8.25;100.00;93707.13;5074525;28;20205;-76
2021/05/18 08:06:44;;;;;;;1.33;1.03;;;;;;;8.30;100.00;93709.97;5039293;28;20225;-77
2021/05/18 08:09:10;;;;;;;1.17;0.73;;;;;;;8.45;100.00;93711.72;5094460;28;20211;-76
2021/05/18 08:11:37;;;;;;;1.88;1.40;;;;;;;8.89;100.00;93708.81;5094493;28;20428;-76
2021/05/18 08:14:03;;;;;;;2.93;1.40;;;;;;;9.11;100.00;93715.72;5094138;28;20209;-76
2021/05/18 08:16:58;;;;;;;1.70;1.40;;;;;;;10.05;100.00;93717.63;5093804;28;20201;-77
2021/05/18 08:22:38;;;;;;;2.43;1.00;;;;;;;9.86;100.00;93721.81;5062478;28;20236;-77
2021/05/18 10:34:45;;;;;;;0.90;0.80;;;;;;;7.39;100.00;93733.88;5075821;28;20277;-76
2021/05/18 10:37:25;;;;;;;5.63;0.80;;;;;;;7.48;100.00;93718.19;5076157;28;20207;-77
2021/05/18 10:40:33;;;;;;;1.90;0.80;;;;;;;7.58;100.00;93716.09;5075938;28;20206;-77
2021/05/18 10:43:26;;;;;;;1.30;0.90;;;;;;;8.04;100.00;93715.72;5075686;28;20230;-77
2021/05/18 10:46:21;;;;;;;1.77;1.03;;;;;;;8.46;100.00;93713.31;5075895;28;20205;-78
2021/05/18 10:49:18;;;;;;;1.93;0.80;;;;;;;9.09;100.00;93700.28;5075763;28;20213;-76
2021/05/18 10:51:55;;;;;;;5.90;1.10;;;;;;;9.22;100.00;93692.53;5075867;28;20292;-77
2021/05/18 10:54:36;;;;;;;3.67;1.00;;;;;;;9.04;100.00;93685.25;5075756;28;20608;-76
2021/05/18 10:57:10;;;;;;;3.73;1.00;;;;;;;9.41;100.00;93677.19;5075400;28;20206;-76
2021/05/18 10:59:38;;;;;;;2.30;0.65;;;;;;;9.35;100.00;93672.75;5074147;28;20473;-78
2021/05/18 11:02:06;;;;;;;1.97;0.90;;;;;;;9.36;100.00;93671.72;5075542;28;20321;-77
2021/05/18 11:04:34;;;;;;;2.17;0.87;;;;;;;9.43;100.00;93662.16;5075774;28;20195;-77
2021/05/18 11:07:02;;;;;;;2.93;0.80;;;;;;;9.48;100.00;93658.97;5079117;28;20225;-77
2021/05/18 11:09:29;;;;;;;0.70;0.70;;;;;;;9.14;100.00;93656.22;5095815;28;20198;-77
2021/05/18 11:11:59;;;;;;;1.17;0.60;;;;;;;8.98;100.00;93656.59;5095739;28;20202;-77
2021/05/18 11:14:36;;;;;;;4.07;0.70;;;;;;;8.39;100.00;93650.78;5095541;28;20591;-75
2021/05/18 11:17:17;;;;;;;1.53;0.87;;;;;;;8.29;100.00;93661.56;5095651;28;20653;-77
2021/05/18 11:19:52;;;;;;;3.30;0.90;;;;;;;8.61;100.00;93648.97;5095690;28;20206;-77
2021/05/18 11:23:18;;;;;;;1.67;0.73;;;;;;;9.19;100.00;93646.06;5095286;28;20379;-77
2021/05/18 11:25:06;;;;;;;0.60;0.60;;;;;;;9.16;100.00;93635.19;5094916;28;20289;-76
2021/05/18 11:27:32;;;;;;;2.57;0.63;;;;;;;9.70;100.00;93630.94;5095216;28;20705;-77
2021/05/18 11:30:01;;;;;;;1.27;0.80;;;;;;;10.03;100.00;93635.38;5094651;28;20199;-77
2021/05/18 11:32:27;;;;;;;3.90;1.00;;;;;;;10.38;100.00;93632.59;5095155;28;20657;-77
2021/05/18 11:34:57;;;;;;;0.90;0.70;;;;;;;10.50;100.00;93628.34;5095211;28;20259;-76
2021/05/18 11:37:24;;;;;;;4.37;1.10;;;;;;;10.60;100.00;93620.09;5095587;28;20255;-77
2021/05/18 11:39:50;;;;;;;4.40;1.00;;;;;;;11.18;100.00;93621.94;5095270;28;20198;-78
2021/05/18 11:42:33;;;;;;;2.00;0.70;;;;;;;11.00;100.00;93612.16;5094953;28;20205;-76
2021/05/18 11:45:13;;;;;;;3.23;0.90;;;;;;;11.69;97.14;93615.00;5095055;28;20205;-77
2021/05/18 11:47:41;;;;;;;1.37;0.80;;;;;;;12.44;88.72;93612.47;5094817;28;20222;-77
2021/05/18 11:50:16;;;;;;;3.30;1.40;;;;;;;13.78;94.73;93603.06;5095084;28;20281;-79
2021/05/18 11:52:42;;;;;;;1.90;0.63;;;;;;;13.75;85.36;93608.75;5094767;28;20680;-76
2021/05/18 11:55:17;;;;;;;1.97;0.90;;;;;;;13.97;79.17;93593.28;5094747;28;20258;-77
2021/05/18 11:57:43;;;;;;;2.13;0.80;;;;;;;13.34;82.87;93603.25;5094772;28;20285;-77
2021/05/18 12:00:19;;;;;;;3.47;0.87;;;;;;;12.56;86.08;93602.88;5094575;28;20557;-77
2021/05/18 12:02:46;;;;;;;4.27;0.57;;;;;;;12.38;83.53;93606.25;5094851;28;20198;-77
2021/05/18 12:05:14;;;;;;;2.03;0.73;;;;;;;12.27;82.21;93596.47;5094582;28;20198;-76
2021/05/18 12:07:40;;;;;;;1.40;0.70;;;;;;;11.69;88.17;93592.31;5094553;28;20226;-77
2021/05/18 12:10:07;;;;;;;2.50;0.63;;;;;;;11.77;87.56;93594.63;5094489;28;20194;-76
2021/05/18 12:12:37;;;;;;;1.00;0.57;;;;;;;11.58;86.93;93600.81;5094284;28;20669;-77
2021/05/18 12:15:07;;;;;;;0.60;0.60;;;;;;;11.47;89.57;93595.25;5094571;28;20285;-78
2021/05/18 12:17:35;;;;;;;0.80;0.70;;;;;;;11.34;90.79;93605.78;5094477;28;20323;-77
2021/05/18 12:20:04;;;;;;;1.80;0.70;;;;;;;11.06;86.11;93603.50;5094306;28;20202;-76
2021/05/18 12:22:41;;;;;;;0.63;0.63;;;;;;;11.24;88.70;93608.84;5090717;28;20344;-76
2021/05/18 12:25:08;;;;;;;0.67;0.67;;;;;;;12.03;87.68;93609.38;5094171;28;20262;-76
2021/05/18 12:27:43;;;;;;;1.07;0.50;;;;;;;11.95;76.50;93621.91;5093965;28;20312;-81
2021/05/18 12:30:10;;;;;;;0.80;0.60;;;;;;;11.52;79.33;93631.19;5094153;28;20201;-77
2021/05/18 12:32:46;;;;;;;3.30;0.70;;;;;;;11.11;83.31;93630.59;5093998;28;20194;-76
2021/05/18 12:35:19;;;;;;;0.57;0.57;;;;;;;10.67;89.59;93636.56;5093994;28;20204;-77
2021/05/18 12:37:47;;;;;;;4.77;0.50;;;;;;;9.95;91.27;93646.81;5093767;28;20610;-75
2021/05/18 12:40:17;;;;;;;2.23;0.70;;;;;;;9.97;97.77;93642.97;5092982;28;20233;-77
2021/05/18 12:42:44;;;;;;;1.00;0.40;;;;;;;10.03;99.97;93645.81;5093898;28;20202;-77
2021/05/18 12:45:20;;;;;;;2.73;0.50;;;;;;;10.38;100.00;93637.81;5093884;28;20297;-77
2021/05/18 12:47:51;;;;;;;1.17;0.70;;;;;;;10.58;95.58;93638.59;5093727;28;20258;-76
2021/05/18 12:50:18;;;;;;;0.53;0.50;;;;;;;10.61;97.95;93626.91;5093644;28;20201;-76
2021/05/18 12:52:47;;;;;;;2.57;0.77;;;;;;;10.82;94.30;93634.50;5093857;28;20251;-76
2021/05/18 12:55:23;;;;;;;1.07;0.50;;;;;;;11.35;98.66;93641.34;5093627;28;20206;-76
2021/05/18 12:57:54;;;;;;;1.33;0.77;;;;;;;11.56;95.06;93644.69;5093705;28;20205;-76
2021/05/18 13:00:29;;;;;;;2.70;0.77;;;;;;;10.64;93.49;93650.00;5087920;28;20226;-76
2021/05/18 13:02:55;;;;;;;2.37;0.60;;;;;;;10.18;94.76;93660.25;5073243;28;20198;-76
2021/05/18 13:05:28;;;;;;;1.07;0.60;;;;;;;9.85;95.71;93664.66;5073317;28;20199;-76
2021/05/18 13:08:09;;;;;;;5.20;1.37;;;;;;;9.42;96.83;93671.75;5073064;28;20230;-76
2021/05/18 13:10:41;;;;;;;2.00;1.13;;;;;;;9.06;98.70;93678.03;5073219;28;20216;-76
2021/05/18 13:13:08;;;;;;;1.63;0.90;;;;;;;8.14;100.00;93679.03;5073065;28;20570;-76
2021/05/18 13:15:35;;;;;;;2.93;0.60;;;;;;;7.93;100.00;93672.06;5073206;28;20207;-76
2021/05/18 13:18:02;;;;;;;2.80;1.17;;;;;;;8.15;100.00;93668.44;5073034;28;20294;-77
2021/05/18 13:20:44;;;;;;;1.00;0.70;;;;;;;8.88;100.00;93657.72;5072974;28;20284;-76
2021/05/18 13:23:21;;;;;;;0.70;0.70;;;;;;;9.58;100.00;93654.19;5073122;28;20632;-76
2021/05/18 13:28:31;;;;;;;1.43;1.03;;;;;;;10.67;99.91;93637.34;5072912;28;20233;-76
2021/05/18 13:30:57;;;;;;;0.90;0.70;;;;;;;10.91;100.00;93642.94;5072811;28;20194;-76
2021/05/18 13:33:23;;;;;;;2.27;0.70;;;;;;;11.14;96.15;93642.47;5072981;28;20199;-76
2021/05/18 13:35:50;;;;;;;2.10;0.90;;;;;;;11.57;98.11;93635.81;5072715;28;20719;-75
2021/05/18 13:38:16;;;;;;;1.53;0.77;;;;;;;11.80;97.59;93627.44;5073018;28;20210;-77
2021/05/18 13:40:42;;;;;;;0.93;0.77;;;;;;;12.16;92.35;93612.91;5072934;28;20205;-76
2021/05/18 13:43:09;;;;;;;1.07;0.80;;;;;;;14.06;90.45;93632.09;5072860;28;20307;-76
2021/05/18 13:45:35;;;;;;;1.70;0.80;;;;;;;15.64;75.65;93619.97;5072769;28;20245;-76
2021/05/18 13:48:01;;;;;;;0.97;0.60;;;;;;;14.13;78.18;93629.38;5072655;28;20300;-76
2021/05/18 13:50:29;;;;;;;0.87;0.57;;;;;;;14.29;77.78;93617.41;5072641;28;20289;-77
2021/05/18 13:52:56;;;;;;;1.45;0.70;;;;;;;15.34;79.74;93612.31;5075308;28;20229;-76
2021/05/18 13:55:22;;;;;;;0.50;0.45;;;;;;;16.38;71.82;93603.31;5076484;28;20672;-76
2021/05/18 13:57:48;;;;;;;1.40;0.50;;;;;;;16.98;67.14;93612.34;5076828;28;20242;-76
2021/05/18 14:00:17;;;;;;;1.60;0.70;;;;;;;16.41;70.15;93608.09;5076783;28;20202;-76
2021/05/18 14:02:45;;;;;;;0.45;0.40;;;;;;;15.72;68.84;93597.72;5076619;28;20653;-76
2021/05/18 14:05:13;;;;;;;3.10;0.47;;;;;;;15.23;67.43;93599.97;5076541;28;20210;-76
2021/05/18 14:10:47;;;;;;;2.15;0.73;;;;;;;13.22;75.83;93594.47;5072598;28;20195;-76
2021/05/18 14:13:13;;;;;;;0.50;0.50;;;;;;;13.66;71.51;93603.03;5076636;28;20225;-76
2021/05/18 14:15:41;;;;;;;2.07;0.60;;;;;;;14.09;70.02;93598.53;5076278;28;20546;-76
2021/05/18 14:18:08;;;;;;;1.17;0.65;;;;;;;13.67;72.84;93597.56;5076548;28;20669;-76
2021/05/18 14:20:34;;;;;;;0.63;0.40;;;;;;;12.95;74.62;93592.97;5076378;28;20259;-77
2021/05/18 14:23:00;;;;;;;0.85;0.50;;;;;;;13.99;73.49;93599.91;5075919;28;20230;-76
2021/05/18 14:25:26;;;;;;;2.70;0.60;;;;;;;14.23;74.67;93592.84;5076309;28;20195;-75
2021/05/18 14:27:52;;;;;;;0.70;0.50;;;;;;;14.46;70.15;93587.84;5076062;28;20233;-77
2021/05/18 14:30:19;;;;;;;1.27;0.50;;;;;;;14.64;71.77;93579.88;5075924;28;20202;-77
2021/05/18 14:32:45;;;;;;;0.50;0.50;;;;;;;14.17;69.02;93587.69;5076207;28;20323;-77
2021/05/18 14:35:15;;;;;;;0.57;0.30;;;;;;;13.93;68.80;93590.31;5075918;28;20286;-77
2021/05/18 14:37:43;;;;;;;2.03;0.70;;;;;;;13.87;72.30;93570.19;5075955;28;20199;-76
2021/05/18 14:40:24;;;;;;;2.70;0.60;;;;;;;15.23;71.23;93561.31;5075919;28;20654;-77
2021/05/18 14:42:53;;;;;;;0.63;0.43;;;;;;;16.32;63.89;93569.22;5075879;28;20203;-77
2021/05/18 14:45:22;;;;;;;1.23;0.57;;;;;;;15.87;63.73;93574.34;5075989;28;20252;-76
2021/05/18 14:47:56;;;;;;;1.60;0.65;;;;;;;15.63;63.31;93564.94;5075709;28;20701;-76
2021/05/18 14:55:52;;;;;;;4.10;0.77;;;;;;;14.47;68.96;93573.66;5075726;28;20620;-76
2021/05/18 14:58:19;;;;;;;1.98;0.50;;;;;;;14.50;74.21;93566.13;5075648;28;20607;-75
2021/05/18 15:00:45;;;;;;;2.78;0.70;;;;;;;14.21;71.02;93575.72;5075548;28;20244;-76
2021/05/18 15:03:11;;;;;;;0.98;0.70;;;;;;;14.00;74.65;93575.25;5077044;28;20203;-75
2021/05/18 15:05:37;;;;;;;2.03;0.75;;;;;;;13.53;75.73;93575.16;5075255;28;20207;-75
2021/05/18 15:08:04;;;;;;;4.50;0.88;;;;;;;13.10;76.61;93578.69;5075337;28;20226;-75
2021/05/18 15:10:30;;;;;;;1.60;0.70;;;;;;;12.77;78.61;93578.09;5075309;28;20210;-75
2021/05/18 15:12:57;;;;;;;0.67;0.67;;;;;;;12.70;76.38;93579.16;5075252;28;20203;-75
2021/05/18 15:15:23;;;;;;;1.23;0.63;;;;;;;12.64;81.47;93578.22;5075298;28;20259;-79
2021/05/18 15:17:50;;;;;;;2.07;1.50;;;;;;;12.25;83.25;93574.19;5075185;28;20234;-75
2021/05/18 15:20:19;;;;;;;3.77;0.80;;;;;;;12.34;78.60;93572.88;5075181;28;20206;-77
2021/05/18 15:22:45;;;;;;;3.40;1.37;;;;;;;12.77;78.37;93561.53;5075173;28;20234;-76
2021/05/18 15:25:12;;;;;;;0.93;0.50;;;;;;;13.23;79.63;93562.81;5075289;28;20203;-76
2021/05/18 15:27:38;;;;;;;1.10;0.70;;;;;;;13.07;77.69;93563.41;5074985;28;20222;-76
2021/05/18 15:30:06;;;;;;;1.20;0.80;;;;;;;12.41;81.63;93552.69;5075001;28;20672;-76
2021/05/18 15:32:32;;;;;;;1.80;0.67;;;;;;;12.32;83.37;93556.59;5074947;28;20215;-76
2021/05/18 15:34:58;;;;;;;2.93;0.80;;;;;;;11.07;84.33;93595.47;5075134;28;20249;-76
2021/05/18 15:37:25;;;;;;;1.90;0.57;;;;;;;10.15;88.26;93637.19;5074970;28;20213;-76
2021/05/18 15:39:51;;;;;;;1.37;0.60;;;;;;;8.87;97.63;93635.28;5074726;28;20297;-76
2021/05/18 15:42:17;;;;;;;1.50;0.60;;;;;;;8.29;97.77;93643.34;5074800;28;20290;-77
2021/05/18 15:44:43;;;;;;;0.87;0.87;;;;;;;8.12;100.00;93652.41;5074834;28;20610;-79
2021/05/18 15:47:09;;;;;;;0.57;0.50;;;;;;;7.78;100.00;93649.53;5074533;28;20226;-77
2021/05/18 15:49:35;;;;;;;2.17;0.70;;;;;;;7.50;100.00;93661.66;5074840;28;20199;-77
2021/05/18 15:52:01;;;;;;;0.73;0.70;;;;;;;7.60;100.00;93651.75;5074691;28;20696;-77
2021/05/18 15:54:27;;;;;;;1.33;0.80;;;;;;;7.67;100.00;93646.63;5074657;28;20210;-76
2021/05/18 15:56:54;;;;;;;2.50;0.90;;;;;;;7.99;100.00;93647.91;5074477;28;20217;-76
2021/05/18 15:59:20;;;;;;;2.87;0.80;;;;;;;8.18;100.00;93640.44;5074424;28;20653;-77